Time;durP1;ratioP1;P1;durP2;ratioP2;P2;SDS_P1;SDS_P2;PMS_P1;PMS_P2;Temp;Humidity;BMP_temperature;BMP_pressure;BME280_temperature;BME280_humidity;BME280_pressure;Samples;Min_cycle;Max_cycle;Signal;HPM_P1;HPM_P2
2022/04/08 00:01:29;;;;;;;5.80;5.30;;;5.60;99.90;;;;;;4997490;28;20099;-72
2022/04/08 00:03:56;;;;;;;8.63;6.15;;;5.50;99.90;;;;;;5013728;28;20065;-72
2022/04/08 00:06:22;;;;;;;8.55;5.53;;;5.40;99.90;;;;;;5000398;28;20128;-72
2022/04/08 00:08:51;;;;;;;6.95;6.28;;;5.40;99.90;;;;;;5013402;28;20052;-73
2022/04/08 00:11:18;;;;;;;8.13;5.95;;;5.40;99.90;;;;;;5009985;28;20085;-73
2022/04/08 00:13:44;;;;;;;6.15;5.75;;;5.40;99.90;;;;;;5001500;28;20056;-73
2022/04/08 00:16:09;;;;;;;8.10;7.55;;;5.40;99.90;;;;;;5011070;28;20501;-73
2022/04/08 00:18:36;;;;;;;6.63;4.82;;;5.30;99.90;;;;;;4995217;28;20029;-72
2022/04/08 00:21:03;;;;;;;14.63;7.50;;;5.30;99.90;;;;;;5013369;28;20102;-73
2022/04/08 00:23:29;;;;;;;6.90;6.28;;;5.40;99.90;;;;;;4997189;28;20041;-72
2022/04/08 00:25:55;;;;;;;6.05;5.55;;;5.40;99.90;;;;;;5012958;28;20076;-72
2022/04/08 00:28:20;;;;;;;11.05;10.25;;;5.20;99.90;;;;;;4994858;28;20074;-72
2022/04/08 00:30:46;;;;;;;6.80;6.40;;;5.10;99.90;;;;;;5013734;28;20439;-72
2022/04/08 00:33:11;;;;;;;7.38;6.78;;;4.90;99.90;;;;;;4996354;28;20041;-72
2022/04/08 00:35:37;;;;;;;3.88;3.67;;;4.80;99.90;;;;;;4996923;28;20497;-72
2022/04/08 00:38:03;;;;;;;5.85;5.45;;;4.80;99.90;;;;;;5013601;28;20037;-72
2022/04/08 00:40:29;;;;;;;18.67;8.55;;;4.70;99.90;;;;;;4996986;28;20052;-71
2022/04/08 00:42:54;;;;;;;5.32;4.93;;;4.70;99.90;;;;;;4993734;28;20529;-72
2022/04/08 00:45:20;;;;;;;4.85;4.50;;;4.70;99.90;;;;;;4995941;28;20037;-71
2022/04/08 00:47:47;;;;;;;6.88;5.65;;;4.70;99.90;;;;;;5013634;28;20041;-71
2022/04/08 00:50:14;;;;;;;5.63;5.10;;;4.80;99.90;;;;;;4996518;28;20056;-72
2022/04/08 00:52:42;;;;;;;5.22;4.78;;;4.70;99.90;;;;;;5009840;28;20041;-72
2022/04/08 00:55:08;;;;;;;5.93;4.28;;;4.70;99.90;;;;;;5010325;28;20051;-72
2022/04/08 00:57:34;;;;;;;10.25;3.85;;;4.70;99.90;;;;;;4995136;28;20050;-72
2022/04/08 01:00:03;;;;;;;4.00;3.47;;;4.70;99.90;;;;;;5012304;28;20048;-72
2022/04/08 01:02:29;;;;;;;12.95;4.68;;;4.70;99.90;;;;;;5013359;28;20041;-71
2022/04/08 01:04:55;;;;;;;8.25;3.30;;;4.80;99.90;;;;;;5012661;28;20136;-73
2022/04/08 01:07:22;;;;;;;7.53;4.45;;;4.60;99.90;;;;;;5007041;28;20543;-72
2022/04/08 01:09:48;;;;;;;4.55;4.25;;;4.70;99.90;;;;;;5012537;28;20497;-71
2022/04/08 01:12:14;;;;;;;7.22;6.57;;;4.50;99.90;;;;;;5011600;28;20037;-72
2022/04/08 01:14:39;;;;;;;12.25;7.18;;;4.30;99.90;;;;;;5000946;28;20378;-72
2022/04/08 01:17:05;;;;;;;9.20;5.43;;;4.30;99.90;;;;;;4996468;28;20045;-72
2022/04/08 01:19:31;;;;;;;11.25;5.90;;;4.30;99.90;;;;;;5000105;28;20044;-72
2022/04/08 01:21:57;;;;;;;6.85;5.35;;;4.20;99.90;;;;;;5012324;28;20039;-72
2022/04/08 01:24:23;;;;;;;4.47;3.53;;;4.20;99.90;;;;;;5012588;28;20060;-72
2022/04/08 01:26:51;;;;;;;4.82;3.80;;;4.20;99.90;;;;;;4995570;28;20057;-72
2022/04/08 01:29:17;;;;;;;3.80;3.60;;;4.20;99.90;;;;;;5011559;28;20041;-72
2022/04/08 01:31:45;;;;;;;10.18;4.32;;;4.10;99.90;;;;;;5012064;28;20100;-72
2022/04/08 01:34:11;;;;;;;5.00;4.60;;;4.20;99.90;;;;;;5012019;28;20227;-72
2022/04/08 01:36:39;;;;;;;10.27;5.40;;;4.10;99.90;;;;;;5010936;28;20099;-72
2022/04/08 01:39:06;;;;;;;6.32;5.82;;;4.10;99.90;;;;;;5004311;28;20038;-72
2022/04/08 01:41:32;;;;;;;8.02;5.45;;;4.10;99.90;;;;;;4997930;28;20038;-72
2022/04/08 01:43:58;;;;;;;3.85;3.65;;;4.10;99.90;;;;;;5012045;28;20032;-72
2022/04/08 01:46:24;;;;;;;4.70;4.40;;;4.10;99.90;;;;;;5011838;28;20049;-72
2022/04/08 01:48:53;;;;;;;5.30;4.88;;;4.10;99.90;;;;;;4996162;28;20095;-72
2022/04/08 01:51:19;;;;;;;4.18;3.97;;;4.10;99.90;;;;;;4995761;28;20053;-72
2022/04/08 01:53:45;;;;;;;4.20;3.25;;;4.10;99.90;;;;;;5011502;28;20041;-73
2022/04/08 01:56:11;;;;;;;4.07;3.88;;;4.10;99.90;;;;;;4994337;28;20045;-73
2022/04/08 01:58:37;;;;;;;4.68;3.90;;;4.00;99.90;;;;;;5010480;28;20433;-72
2022/04/08 02:01:03;;;;;;;3.10;2.92;;;4.00;99.90;;;;;;5002011;28;20034;-73
2022/04/08 02:03:28;;;;;;;3.72;3.53;;;4.00;99.90;;;;;;5011459;28;20077;-73
2022/04/08 02:05:54;;;;;;;4.60;4.30;;;4.00;99.90;;;;;;5011455;28;20041;-73
2022/04/08 02:08:20;;;;;;;13.48;5.05;;;4.00;99.90;;;;;;5011086;28;20041;-73
2022/04/08 02:10:45;;;;;;;5.75;5.25;;;4.00;99.90;;;;;;4994972;28;20061;-73
2022/04/08 02:13:11;;;;;;;4.88;4.57;;;4.10;99.90;;;;;;5010465;28;20037;-73
2022/04/08 02:15:38;;;;;;;7.50;6.47;;;4.10;99.90;;;;;;4993395;28;20638;-73
2022/04/08 02:18:04;;;;;;;14.68;7.68;;;4.10;99.90;;;;;;5011459;28;20041;-72
2022/04/08 02:20:31;;;;;;;7.65;5.97;;;4.20;99.90;;;;;;5011531;28;20419;-72
2022/04/08 02:22:58;;;;;;;6.32;3.72;;;4.30;99.90;;;;;;5010958;28;20468;-73
2022/04/08 02:25:25;;;;;;;4.10;3.15;;;4.40;99.90;;;;;;4993225;28;20175;-72
2022/04/08 02:27:51;;;;;;;6.55;4.50;;;4.40;99.90;;;;;;4994649;28;20524;-72
2022/04/08 02:30:17;;;;;;;7.18;5.85;;;4.30;99.90;;;;;;4994414;28;20406;-73
2022/04/08 02:32:43;;;;;;;7.15;5.03;;;4.20;99.90;;;;;;5007962;28;20038;-72
2022/04/08 02:35:09;;;;;;;5.97;5.47;;;4.20;99.90;;;;;;5010976;28;20049;-73
2022/04/08 02:37:35;;;;;;;7.90;3.72;;;4.20;99.90;;;;;;5011641;28;20145;-72
2022/04/08 02:40:01;;;;;;;4.82;3.63;;;4.20;99.90;;;;;;4991121;28;20136;-72
2022/04/08 02:42:30;;;;;;;3.40;3.20;;;4.10;99.90;;;;;;5018749;28;20041;-72
2022/04/08 02:44:56;;;;;;;7.38;4.40;;;4.10;99.90;;;;;;4994601;28;20046;-72
2022/04/08 02:47:21;;;;;;;6.13;4.68;;;4.00;99.90;;;;;;4994944;28;20049;-72
2022/04/08 02:49:47;;;;;;;4.85;4.55;;;4.10;99.90;;;;;;5009734;28;20041;-72
2022/04/08 02:52:13;;;;;;;51.05;6.70;;;4.10;99.90;;;;;;5009282;28;20129;-73
2022/04/08 02:54:38;;;;;;;6.03;5.63;;;4.10;99.90;;;;;;5003636;28;20041;-73
2022/04/08 02:57:04;;;;;;;10.27;9.55;;;4.10;99.90;;;;;;4999312;28;20057;-73
2022/04/08 02:59:30;;;;;;;6.65;5.50;;;4.00;99.90;;;;;;4992646;28;20045;-73
2022/04/08 03:01:55;;;;;;;7.38;6.53;;;4.00;99.90;;;;;;5008208;28;20038;-73
2022/04/08 03:04:21;;;;;;;4.93;4.63;;;4.00;99.90;;;;;;5007862;28;20045;-73
2022/04/08 03:06:47;;;;;;;4.40;4.20;;;4.00;99.90;;;;;;4994832;28;20037;-73
2022/04/08 03:09:13;;;;;;;3.75;3.55;;;3.90;99.90;;;;;;5010468;28;20059;-73
2022/04/08 03:11:38;;;;;;;7.30;6.72;;;3.80;99.90;;;;;;5010460;28;20045;-73
2022/04/08 03:14:05;;;;;;;10.82;5.55;;;3.80;99.90;;;;;;4994350;28;20525;-73
2022/04/08 03:16:31;;;;;;;9.18;6.28;;;3.80;99.90;;;;;;4994304;28;20087;-73
2022/04/08 03:18:57;;;;;;;4.13;3.83;;;3.80;99.90;;;;;;4994791;28;20080;-73
2022/04/08 03:21:23;;;;;;;9.00;6.07;;;3.80;99.90;;;;;;5009410;28;20103;-73
2022/04/08 03:23:48;;;;;;;5.00;4.70;;;3.90;99.90;;;;;;5010332;28;20538;-73
2022/04/08 03:26:15;;;;;;;4.90;4.60;;;3.90;99.90;;;;;;5010509;28;20054;-73
2022/04/08 03:28:42;;;;;;;3.90;3.70;;;3.90;99.90;;;;;;4994080;28;20509;-73
2022/04/08 03:31:08;;;;;;;11.48;5.97;;;3.90;99.90;;;;;;4990800;28;20137;-73
2022/04/08 03:33:34;;;;;;;4.65;4.35;;;3.90;99.90;;;;;;5010834;28;20483;-73
2022/04/08 03:36:00;;;;;;;11.45;4.70;;;3.90;99.90;;;;;;5010363;28;20117;-73
2022/04/08 03:38:25;;;;;;;11.63;4.30;;;3.90;99.90;;;;;;5010066;28;20120;-73
2022/04/08 03:40:51;;;;;;;11.38;5.32;;;3.90;99.90;;;;;;5009190;28;20050;-73
2022/04/08 03:43:18;;;;;;;4.55;4.20;;;3.90;99.90;;;;;;4996097;28;20095;-73
2022/04/08 03:45:44;;;;;;;17.27;3.97;;;3.90;99.90;;;;;;4994109;28;20037;-73
2022/04/08 03:48:09;;;;;;;5.30;4.88;;;3.90;99.90;;;;;;4992189;28;20374;-73
2022/04/08 03:50:35;;;;;;;7.68;6.03;;;4.10;99.90;;;;;;5016714;28;20042;-73
2022/04/08 03:53:01;;;;;;;4.65;4.10;;;4.20;99.90;;;;;;5010188;28;20053;-73
2022/04/08 03:55:26;;;;;;;5.97;5.15;;;4.50;99.90;;;;;;5010141;28;20069;-73
2022/04/08 03:57:52;;;;;;;7.35;6.80;;;4.50;99.90;;;;;;4994004;28;20060;-73
2022/04/08 04:00:18;;;;;;;4.93;4.63;;;4.40;99.90;;;;;;5009413;28;20553;-72
2022/04/08 04:02:43;;;;;;;7.05;5.95;;;4.30;99.90;;;;;;5008860;28;20108;-73
2022/04/08 04:05:10;;;;;;;5.05;4.75;;;4.20;99.90;;;;;;4993993;28;20461;-72
2022/04/08 04:07:36;;;;;;;4.25;3.33;;;4.10;99.90;;;;;;5026743;28;20059;-73
2022/04/08 04:10:02;;;;;;;6.90;6.40;;;4.00;99.90;;;;;;5009759;28;20041;-73
2022/04/08 04:12:27;;;;;;;4.53;4.30;;;3.90;99.90;;;;;;5007045;28;20041;-73
2022/04/08 04:14:54;;;;;;;4.00;3.80;;;3.80;99.90;;;;;;4993693;28;20052;-73
2022/04/08 04:17:21;;;;;;;3.30;3.10;;;3.70;99.90;;;;;;5007069;28;20492;-74
2022/04/08 04:19:47;;;;;;;4.82;4.53;;;3.70;99.90;;;;;;5009320;28;20133;-73
2022/04/08 04:22:12;;;;;;;3.15;2.95;;;3.60;99.90;;;;;;4995786;28;20124;-73
2022/04/08 04:24:38;;;;;;;3.30;3.10;;;3.60;99.90;;;;;;5013932;28;20405;-73
2022/04/08 04:27:04;;;;;;;2.70;2.60;;;3.50;99.90;;;;;;4997679;28;20045;-73
2022/04/08 04:29:30;;;;;;;3.25;3.05;;;3.50;99.90;;;;;;5012655;28;20111;-73
2022/04/08 04:31:56;;;;;;;2.90;2.80;;;3.50;99.90;;;;;;5013497;28;20068;-73
2022/04/08 04:34:23;;;;;;;4.20;3.35;;;3.40;99.90;;;;;;4996805;28;20053;-73
2022/04/08 04:36:49;;;;;;;2.92;2.80;;;3.50;99.90;;;;;;5013176;28;20045;-72
2022/04/08 04:39:14;;;;;;;4.18;3.60;;;3.50;99.90;;;;;;5013635;28;20132;-72
2022/04/08 04:41:40;;;;;;;4.15;3.75;;;3.60;99.90;;;;;;4997132;28;20382;-72
2022/04/08 04:44:06;;;;;;;3.75;3.47;;;3.60;99.90;;;;;;5009329;28;20045;-72
2022/04/08 04:46:31;;;;;;;3.90;3.60;;;3.70;99.90;;;;;;5013022;28;20049;-72
2022/04/08 04:48:57;;;;;;;2.63;2.53;;;3.80;99.90;;;;;;5011855;28;20045;-73
2022/04/08 04:51:23;;;;;;;6.78;6.18;;;3.80;99.90;;;;;;5010685;28;20671;-74
2022/04/08 04:53:48;;;;;;;3.83;3.58;;;3.80;99.90;;;;;;5013057;28;20045;-71
2022/04/08 04:56:14;;;;;;;5.93;5.47;;;3.90;99.90;;;;;;5007700;28;20080;-73
2022/04/08 04:58:39;;;;;;;4.70;4.40;;;4.00;99.90;;;;;;5012732;28;20112;-73
2022/04/08 05:01:05;;;;;;;8.35;5.55;;;4.00;99.90;;;;;;5028804;28;20464;-73
2022/04/08 05:03:31;;;;;;;4.45;4.13;;;4.00;99.90;;;;;;5012584;28;20383;-73
2022/04/08 05:05:56;;;;;;;5.55;4.00;;;3.90;99.90;;;;;;5012029;28;20037;-73
2022/04/08 05:08:22;;;;;;;5.38;3.15;;;4.00;99.90;;;;;;4996233;28;20474;-73
2022/04/08 05:10:48;;;;;;;2.97;2.78;;;4.00;99.90;;;;;;5011769;28;20128;-73
2022/04/08 05:13:13;;;;;;;9.20;3.35;;;4.00;99.90;;;;;;5012686;28;20047;-73
2022/04/08 05:15:42;;;;;;;3.90;3.70;;;4.00;99.90;;;;;;5011120;28;20147;-73
2022/04/08 05:18:09;;;;;;;3.58;3.38;;;3.90;99.90;;;;;;5008790;28;20573;-74
2022/04/08 05:20:34;;;;;;;3.60;3.25;;;3.90;99.90;;;;;;4991757;28;20112;-73
2022/04/08 05:23:00;;;;;;;4.30;3.92;;;3.90;99.90;;;;;;4986571;28;20048;-74
2022/04/08 05:25:26;;;;;;;4.47;4.07;;;3.90;99.90;;;;;;5001900;28;20050;-73
2022/04/08 05:27:52;;;;;;;3.63;3.42;;;3.90;99.90;;;;;;5008197;28;20148;-74
2022/04/08 05:30:18;;;;;;;6.35;5.15;;;4.00;99.90;;;;;;5025040;28;20350;-74
2022/04/08 05:32:47;;;;;;;3.45;3.00;;;4.00;99.90;;;;;;4999337;28;20034;-73
2022/04/08 05:35:14;;;;;;;3.42;3.22;;;4.10;99.90;;;;;;5008685;28;20042;-74
2022/04/08 05:37:44;;;;;;;3.35;3.15;;;4.10;99.90;;;;;;4983520;28;20042;-73
2022/04/08 05:40:14;;;;;;;4.05;3.75;;;4.20;99.90;;;;;;5009412;28;20100;-73
2022/04/08 05:42:50;;;;;;;4.68;3.45;;;4.20;99.90;;;;;;4987280;28;20073;-74
2022/04/08 05:45:18;;;;;;;3.50;2.97;;;4.30;99.90;;;;;;5003292;28;20048;-74
2022/04/08 05:47:47;;;;;;;3.58;3.28;;;4.30;99.90;;;;;;5007388;28;20068;-73
2022/04/08 05:50:13;;;;;;;2.58;2.47;;;4.30;99.90;;;;;;5007703;28;20140;-74
2022/04/08 05:52:40;;;;;;;3.50;3.22;;;4.30;99.90;;;;;;5024979;28;20061;-74
2022/04/08 05:55:06;;;;;;;4.35;4.05;;;4.30;99.90;;;;;;5008492;28;20053;-74
2022/04/08 05:57:41;;;;;;;3.97;3.15;;;4.20;99.90;;;;;;4983949;28;20402;-74
2022/04/08 06:00:10;;;;;;;8.48;6.07;;;4.20;99.90;;;;;;4993606;28;20053;-74
2022/04/08 06:02:37;;;;;;;4.97;4.53;;;4.20;99.90;;;;;;4992162;28;20042;-73
2022/04/08 06:05:03;;;;;;;4.07;3.80;;;4.30;99.90;;;;;;5008606;28;20386;-74
2022/04/08 06:07:28;;;;;;;5.65;5.35;;;4.40;99.90;;;;;;4988315;28;20042;-74
2022/04/08 06:09:56;;;;;;;4.43;4.13;;;4.60;99.90;;;;;;4985797;28;20413;-74
2022/04/08 06:12:22;;;;;;;3.95;3.60;;;4.90;99.90;;;;;;5008697;28;20413;-74
2022/04/08 06:14:47;;;;;;;3.20;3.00;;;5.10;99.90;;;;;;4992210;28;20052;-74
2022/04/08 06:17:13;;;;;;;5.00;4.68;;;5.20;99.90;;;;;;4990919;28;20095;-73
2022/04/08 06:19:39;;;;;;;4.75;4.45;;;5.50;99.90;;;;;;5005975;28;20042;-75
2022/04/08 06:22:04;;;;;;;3.83;3.63;;;5.50;99.90;;;;;;5008415;28;20049;-74
2022/04/08 06:24:30;;;;;;;5.95;5.55;;;5.40;99.90;;;;;;5004852;28;20046;-74
2022/04/08 06:26:55;;;;;;;5.20;4.90;;;5.50;99.90;;;;;;5006312;28;20057;-73
2022/04/08 06:29:21;;;;;;;4.10;3.90;;;5.70;99.90;;;;;;4989553;28;20050;-74
2022/04/08 06:31:46;;;;;;;4.97;4.18;;;5.80;99.90;;;;;;4988994;28;20375;-74
2022/04/08 06:34:13;;;;;;;4.05;3.85;;;5.90;99.90;;;;;;5002760;28;20049;-74
2022/04/08 06:36:39;;;;;;;4.53;4.30;;;6.10;99.90;;;;;;5007836;28;20060;-73
2022/04/08 06:39:05;;;;;;;5.13;4.70;;;6.30;99.90;;;;;;5007343;28;20410;-73
2022/04/08 06:41:30;;;;;;;3.88;3.67;;;6.30;99.90;;;;;;5007439;28;20437;-73
2022/04/08 06:43:56;;;;;;;4.18;3.88;;;6.20;99.90;;;;;;4987846;28;20038;-73
2022/04/08 06:46:22;;;;;;;6.03;4.55;;;6.00;99.90;;;;;;4987225;28;20052;-73
2022/04/08 06:48:48;;;;;;;4.90;4.50;;;5.90;99.90;;;;;;4989431;28;20371;-73
2022/04/08 06:51:14;;;;;;;4.95;4.55;;;5.80;99.90;;;;;;5005446;28;20041;-73
2022/04/08 06:53:39;;;;;;;4.30;4.10;;;5.70;99.90;;;;;;4984406;28;20049;-73
2022/04/08 06:56:05;;;;;;;5.15;4.78;;;5.70;99.90;;;;;;4981271;28;20550;-73
2022/04/08 06:58:32;;;;;;;5.20;4.80;;;5.90;99.90;;;;;;4989525;28;20045;-73
2022/04/08 07:00:58;;;;;;;4.88;4.38;;;6.00;99.90;;;;;;4990463;28;20501;-73
2022/04/08 07:03:24;;;;;;;5.30;4.85;;;6.10;99.90;;;;;;4990225;28;20471;-73
2022/04/08 07:05:50;;;;;;;7.07;5.43;;;6.20;99.90;;;;;;4997792;28;21445;-73
2022/04/08 07:08:15;;;;;;;3.20;3.00;;;6.30;99.90;;;;;;4989567;28;20413;-73
2022/04/08 07:10:41;;;;;;;3.92;3.72;;;6.40;99.90;;;;;;4998848;28;20104;-73
2022/04/08 07:13:07;;;;;;;3.28;3.08;;;6.40;99.90;;;;;;4995011;28;20049;-73
2022/04/08 07:15:33;;;;;;;4.38;3.97;;;6.40;99.90;;;;;;4981322;28;20111;-73
2022/04/08 07:17:58;;;;;;;3.58;3.28;;;6.30;99.90;;;;;;4996412;28;20042;-73
2022/04/08 07:20:24;;;;;;;3.53;3.22;;;6.30;99.90;;;;;;4979559;28;20080;-73
2022/04/08 07:22:50;;;;;;;3.67;3.47;;;6.30;99.90;;;;;;4987531;28;20042;-73
2022/04/08 07:25:16;;;;;;;5.07;4.68;;;6.40;99.90;;;;;;4987382;28;20456;-73
2022/04/08 07:27:50;;;;;;;3.78;3.47;;;6.50;99.90;;;;;;5005266;28;20053;-73
2022/04/08 07:30:17;;;;;;;4.72;4.43;;;6.60;99.90;;;;;;5006270;28;20085;-73
2022/04/08 07:32:44;;;;;;;8.20;5.68;;;6.70;99.90;;;;;;5000221;28;20038;-73
2022/04/08 07:35:10;;;;;;;3.45;2.63;;;6.90;99.90;;;;;;4989437;28;20054;-73
2022/04/08 07:37:36;;;;;;;3.60;3.40;;;7.00;99.90;;;;;;4987933;28;20069;-73
2022/04/08 07:40:09;;;;;;;4.65;3.83;;;6.90;99.90;;;;;;4989717;28;20557;-73
2022/04/08 07:42:35;;;;;;;3.60;3.28;;;6.90;99.90;;;;;;4985562;28;20065;-73
2022/04/08 07:45:02;;;;;;;5.90;3.83;;;6.90;99.90;;;;;;4990518;28;20404;-73
2022/04/08 07:47:28;;;;;;;2.90;2.70;;;7.00;99.90;;;;;;5000988;28;20046;-73
2022/04/08 07:50:01;;;;;;;3.58;3.05;;;7.20;99.90;;;;;;4989441;28;20470;-73
2022/04/08 07:52:27;;;;;;;;;;;7.20;99.90;;;;;;5021602;28;20060;-73
2022/04/08 07:54:54;;;;;;;4.25;2.20;;;7.20;99.90;;;;;;5022015;28;19967;-73
2022/04/08 07:57:19;;;;;;;2.65;2.35;;;7.10;99.90;;;;;;4998295;28;20116;-73
2022/04/08 07:59:45;;;;;;;9.30;4.70;;;7.10;99.90;;;;;;5004337;28;20149;-73
2022/04/08 08:02:11;;;;;;;7.03;4.28;;;7.10;99.90;;;;;;5010340;28;20513;-73
2022/04/08 08:04:37;;;;;;;6.85;4.57;;;7.20;99.90;;;;;;5008918;28;20124;-73
2022/04/08 08:07:03;;;;;;;4.85;4.43;;;7.40;99.90;;;;;;5010708;28;20050;-73
2022/04/08 08:09:28;;;;;;;3.08;2.88;;;7.40;99.90;;;;;;5009019;28;20042;-73
2022/04/08 08:11:54;;;;;;;20.83;4.03;;;7.40;99.90;;;;;;4995781;28;20123;-73
2022/04/08 08:14:20;;;;;;;3.42;2.95;;;7.50;99.90;;;;;;5009702;28;20045;-73
2022/04/08 08:16:45;;;;;;;4.28;3.75;;;7.50;99.90;;;;;;5002785;28;20049;-72
2022/04/08 08:19:11;;;;;;;3.50;2.90;;;7.50;99.90;;;;;;5003695;28;20050;-73
2022/04/08 08:21:37;;;;;;;2.60;2.40;;;7.70;99.90;;;;;;4998144;28;20038;-73
2022/04/08 08:24:03;;;;;;;4.97;2.90;;;7.80;99.90;;;;;;5001113;28;20631;-73
2022/04/08 08:26:30;;;;;;;2.25;2.15;;;7.90;99.90;;;;;;4999792;28;20049;-73
2022/04/08 08:28:56;;;;;;;2.00;1.90;;;8.00;99.90;;;;;;4990499;28;20088;-73
2022/04/08 08:31:22;;;;;;;2.05;1.85;;;8.10;99.90;;;;;;4986822;28;20042;-73
2022/04/08 08:33:49;;;;;;;8.45;2.85;;;8.10;99.90;;;;;;4985879;28;20042;-73
2022/04/08 08:36:15;;;;;;;2.50;1.75;;;8.30;99.90;;;;;;4994939;28;20038;-73
2022/04/08 08:38:40;;;;;;;1.92;1.70;;;8.30;99.90;;;;;;4981341;28;20482;-73
2022/04/08 08:41:08;;;;;;;5.28;2.40;;;8.20;99.90;;;;;;4984324;28;20038;-73
2022/04/08 08:43:35;;;;;;;5.70;2.08;;;8.20;99.90;;;;;;4999410;28;20487;-73
2022/04/08 08:46:03;;;;;;;3.10;2.90;;;8.20;99.90;;;;;;4984675;28;20467;-73
2022/04/08 08:48:33;;;;;;;6.30;1.70;;;8.40;99.90;;;;;;4995310;28;20104;-72
2022/04/08 08:51:01;;;;;;;1.40;1.00;;;8.70;99.90;;;;;;4997179;28;20092;-73
2022/04/08 08:53:29;;;;;;;4.50;1.70;;;8.70;99.90;;;;;;4997362;28;20034;-73
2022/04/08 08:55:55;;;;;;;0.90;0.90;;;8.60;99.90;;;;;;4999749;28;20038;-72
2022/04/08 08:58:21;;;;;;;1.13;1.08;;;8.50;99.90;;;;;;5002005;28;20049;-73
2022/04/08 09:00:47;;;;;;;6.32;1.67;;;8.50;99.90;;;;;;4978012;28;20065;-73
2022/04/08 09:03:13;;;;;;;1.48;1.13;;;8.70;99.90;;;;;;4981663;28;20041;-73
2022/04/08 09:05:43;;;;;;;1.58;1.55;;;9.20;99.90;;;;;;4996554;28;20038;-73
2022/04/08 09:08:10;;;;;;;10.30;1.25;;;10.20;99.90;;;;;;5000730;28;20073;-73
2022/04/08 09:10:50;;;;;;;3.05;1.58;;;10.90;99.90;;;;;;4982035;28;21576;-73
2022/04/08 09:13:19;;;;;;;1.40;0.80;;;11.40;99.90;;;;;;4980986;28;20601;-73
2022/04/08 09:15:59;;;;;;;0.70;0.70;;;11.30;99.90;;;;;;4995024;28;20103;-73
2022/04/08 09:18:30;;;;;;;3.13;0.85;;;10.50;99.90;;;;;;5010708;28;20045;-73
2022/04/08 09:20:57;;;;;;;1.67;1.08;;;10.20;99.90;;;;;;4977780;28;20042;-73
2022/04/08 09:23:23;;;;;;;1.85;1.45;;;10.70;99.90;;;;;;4996972;28;20041;-73
2022/04/08 09:25:58;;;;;;;4.75;1.63;;;11.40;99.90;;;;;;5008581;28;20147;-73
2022/04/08 09:28:23;;;;;;;2.05;0.98;;;11.80;99.90;;;;;;4992097;28;20486;-73
2022/04/08 09:30:55;;;;;;;6.82;1.77;;;12.20;99.90;;;;;;5009359;28;20042;-73
2022/04/08 09:33:23;;;;;;;16.33;0.80;;;12.00;99.90;;;;;;4998964;28;20436;-73
2022/04/08 09:35:52;;;;;;;3.45;0.57;;;11.70;99.90;;;;;;4979396;28;21658;-73
2022/04/08 09:38:19;;;;;;;0.77;0.68;;;11.10;99.90;;;;;;4976571;28;20046;-73
2022/04/08 09:40:47;;;;;;;1.35;1.33;;;10.40;99.90;;;;;;4994124;28;20462;-72
2022/04/08 09:43:13;;;;;;;3.20;0.50;;;10.10;99.90;;;;;;4982347;28;20042;-73
2022/04/08 09:45:39;;;;;;;1.02;0.95;;;10.30;99.90;;;;;;4981608;28;20579;-73
2022/04/08 09:48:07;;;;;;;3.80;1.42;;;10.10;99.90;;;;;;4977049;28;20159;-73
2022/04/08 09:50:34;;;;;;;3.03;1.25;;;10.00;99.90;;;;;;5007899;28;20568;-73
2022/04/08 09:53:02;;;;;;;0.68;0.63;;;9.70;99.90;;;;;;4992527;28;20044;-73
2022/04/08 09:55:29;;;;;;;1.30;1.20;;;9.50;99.90;;;;;;4994870;28;20120;-72
2022/04/08 09:58:02;;;;;;;4.20;1.27;;;9.50;99.90;;;;;;4992002;28;20410;-72
2022/04/08 10:00:28;;;;;;;2.90;1.33;;;10.10;99.90;;;;;;4991558;28;20039;-72
2022/04/08 10:02:55;;;;;;;1.15;0.90;;;10.80;99.90;;;;;;4978857;28;20040;-72
2022/04/08 10:05:24;;;;;;;3.30;1.50;;;11.10;99.90;;;;;;4992679;28;20049;-72
2022/04/08 10:07:54;;;;;;;2.38;1.08;;;11.20;99.90;;;;;;4977133;28;20468;-72
2022/04/08 10:10:42;;;;;;;1.75;0.88;;;11.50;99.90;;;;;;5001835;28;20038;-72
2022/04/08 10:13:08;;;;;;;3.38;1.15;;;11.50;99.90;;;;;;4992579;28;20402;-72
2022/04/08 10:15:38;;;;;;;2.92;1.02;;;11.20;99.90;;;;;;4983606;28;20042;-72
2022/04/08 10:18:05;;;;;;;4.72;1.50;;;11.10;99.90;;;;;;4998303;28;20389;-73
2022/04/08 10:20:32;;;;;;;0.85;0.85;;;11.10;99.90;;;;;;4998742;28;20085;-72
2022/04/08 10:23:13;;;;;;;1.00;0.45;;;11.40;99.90;;;;;;5002730;28;20045;-72
2022/04/08 10:25:43;;;;;;;1.60;1.48;;;11.50;99.90;;;;;;4999863;28;20054;-71
2022/04/08 10:28:11;;;;;;;2.40;1.02;;;11.50;99.90;;;;;;5005989;28;20490;-71
2022/04/08 10:30:45;;;;;;;3.97;0.70;;;11.20;99.90;;;;;;4990332;28;20037;-71
2022/04/08 10:33:13;;;;;;;4.78;1.40;;;10.80;99.90;;;;;;5006554;28;20054;-71
2022/04/08 10:35:51;;;;;;;1.02;1.00;;;10.40;99.90;;;;;;4989469;28;20042;-72
2022/04/08 10:38:17;;;;;;;1.45;0.95;;;10.40;99.90;;;;;;5007009;28;20049;-73
2022/04/08 10:40:56;;;;;;;2.47;1.20;;;10.60;99.90;;;;;;5000347;28;20039;-72
2022/04/08 10:43:22;;;;;;;2.85;1.05;;;10.90;99.90;;;;;;4987818;28;20103;-72
2022/04/08 10:45:56;;;;;;;4.10;1.45;;;11.10;99.90;;;;;;5022093;28;20038;-72
2022/04/08 10:48:42;;;;;;;10.55;1.10;;;11.30;99.90;;;;;;5004484;28;20081;-72
2022/04/08 10:51:14;;;;;;;2.72;1.00;;;11.00;99.90;;;;;;5003236;28;20520;-72
2022/04/08 10:53:43;;;;;;;0.43;0.43;;;10.60;99.90;;;;;;4995952;28;20057;-72
2022/04/08 10:56:14;;;;;;;1.02;1.02;;;10.20;99.90;;;;;;4999191;28;20050;-71
2022/04/08 10:58:49;;;;;;;4.28;1.52;;;9.90;99.90;;;;;;5000446;28;20099;-72
2022/04/08 11:01:21;;;;;;;3.30;1.75;;;9.70;99.90;;;;;;4998707;28;20398;-73
2022/04/08 11:04:00;;;;;;;3.25;2.03;;;9.50;99.90;;;;;;4990713;28;20773;-72
2022/04/08 11:06:32;;;;;;;3.10;2.00;;;9.30;99.90;;;;;;4996535;28;20050;-72
2022/04/08 11:09:08;;;;;;;1.77;1.55;;;9.00;99.90;;;;;;4999011;28;20415;-72
2022/04/08 11:11:53;;;;;;;8.77;1.30;;;8.90;99.90;;;;;;4994340;28;20041;-72
2022/04/08 11:14:19;;;;;;;0.68;0.68;;;8.70;99.90;;;;;;4985898;28;20120;-72
2022/04/08 11:16:47;;;;;;;1.27;1.17;;;8.50;99.90;;;;;;4992588;28;20042;-72
2022/04/08 11:19:12;;;;;;;0.98;0.98;;;8.30;99.90;;;;;;4979839;28;20063;-72
2022/04/08 11:21:40;;;;;;;1.30;1.30;;;8.00;99.90;;;;;;4999111;28;20812;-72
2022/04/08 11:24:11;;;;;;;0.95;0.95;;;8.00;99.90;;;;;;4997250;28;20034;-72
2022/04/08 11:26:42;;;;;;;0.80;0.80;;;8.10;99.90;;;;;;4989669;28;20104;-72
2022/04/08 11:29:27;;;;;;;1.02;1.02;;;8.20;99.90;;;;;;5003740;28;20100;-72
2022/04/08 11:32:08;;;;;;;1.10;1.10;;;8.40;99.90;;;;;;5021793;28;20501;-72
2022/04/08 11:34:34;;;;;;;1.30;1.10;;;8.60;99.90;;;;;;5021645;28;20037;-72
2022/04/08 11:37:00;;;;;;;6.65;1.65;;;8.90;99.90;;;;;;4988864;28;20054;-73
2022/04/08 11:39:30;;;;;;;0.60;0.60;;;9.20;99.90;;;;;;4984133;28;20053;-72
2022/04/08 11:41:57;;;;;;;5.15;1.70;;;9.40;99.90;;;;;;5003551;28;20126;-72
2022/04/08 11:44:23;;;;;;;2.00;1.20;;;9.70;99.90;;;;;;5006731;28;20049;-73
2022/04/08 11:46:49;;;;;;;3.33;1.58;;;9.90;99.90;;;;;;5006798;28;20050;-72
2022/04/08 11:49:15;;;;;;;1.25;0.80;;;10.10;99.90;;;;;;5007711;28;20095;-72
2022/04/08 11:51:41;;;;;;;5.97;0.73;;;10.30;99.90;;;;;;5013041;28;20049;-72
2022/04/08 11:54:07;;;;;;;4.82;1.52;;;10.50;99.90;;;;;;4991862;28;20045;-73
2022/04/08 11:56:33;;;;;;;1.23;0.65;;;10.60;99.90;;;;;;4989907;28;20080;-73
2022/04/08 11:59:04;;;;;;;0.75;0.68;;;10.90;99.90;;;;;;5010770;28;20034;-72
2022/04/08 12:01:40;;;;;;;0.50;0.50;;;10.90;99.90;;;;;;4980371;28;20041;-73
2022/04/08 12:04:09;;;;;;;0.40;0.40;;;11.00;99.90;;;;;;5011819;28;20414;-73
2022/04/08 12:06:38;;;;;;;3.88;0.88;;;11.20;99.90;;;;;;5020617;28;20041;-73
2022/04/08 12:09:04;;;;;;;1.30;0.70;;;11.40;99.90;;;;;;5001719;28;20039;-72
2022/04/08 12:11:31;;;;;;;4.78;1.20;;;11.50;99.90;;;;;;4987977;28;20050;-72
2022/04/08 12:13:57;;;;;;;2.42;0.80;;;11.60;99.90;;;;;;5005412;28;20113;-73
2022/04/08 12:16:23;;;;;;;1.70;0.75;;;11.60;99.90;;;;;;4993771;28;20053;-72
2022/04/08 12:18:51;;;;;;;2.85;1.13;;;11.60;99.90;;;;;;5005346;28;20095;-72
2022/04/08 12:21:22;;;;;;;3.00;1.88;;;11.70;99.90;;;;;;4992484;28;20051;-72
2022/04/08 12:23:50;;;;;;;4.32;0.80;;;11.70;99.90;;;;;;5004819;28;20096;-72
2022/04/08 12:26:16;;;;;;;7.00;0.82;;;11.90;99.90;;;;;;5025213;28;20089;-73
2022/04/08 12:28:42;;;;;;;1.13;0.60;;;12.10;99.90;;;;;;5008563;28;20050;-72
2022/04/08 12:31:15;;;;;;;5.32;1.30;;;12.20;99.90;;;;;;4990661;28;20060;-72
2022/04/08 12:33:42;;;;;;;6.00;1.30;;;12.00;99.90;;;;;;4997497;28;20037;-72
2022/04/08 12:36:09;;;;;;;8.60;1.42;;;11.20;99.90;;;;;;5002887;28;20442;-72
2022/04/08 12:38:36;;;;;;;0.77;0.70;;;10.70;99.90;;;;;;5020415;28;20101;-72
2022/04/08 12:41:02;;;;;;;9.27;1.52;;;10.40;99.90;;;;;;5001912;28;20065;-72
2022/04/08 12:43:27;;;;;;;0.43;0.43;;;10.40;99.90;;;;;;5009240;28;20077;-72
2022/04/08 12:45:53;;;;;;;2.45;1.23;;;10.30;99.90;;;;;;5010619;28;20128;-72
2022/04/08 12:48:19;;;;;;;2.25;0.82;;;10.30;99.90;;;;;;4993711;28;20111;-72
2022/04/08 12:50:44;;;;;;;4.35;1.30;;;10.50;99.90;;;;;;5009360;28;20038;-72
2022/04/08 12:53:10;;;;;;;2.20;1.00;;;10.60;99.90;;;;;;5009790;28;20096;-72
2022/04/08 12:55:36;;;;;;;0.90;0.80;;;10.70;99.90;;;;;;5010252;28;20099;-72